• Join FlightAware (Why Join?)
  • Login
  • US Flag 
12:11PM EDT


 

Airport Tracker/Info


-or-


 

Live Flight TrackerFlight Track Log ✈ KAP5 ✈ 29-Jun-2013 ✈ KMVY - KBOS

Flight Track Log - Related Links

Times and Time Zones

All times are in EDT time to prevent confusion due to time zone crossing. See the KAP5 flight status page for this flight to view local times or setup timezone preferences in your user account.

Time Position Orientation Groundspeed Altitude Reporting Facility
EDT Latitude Longitude Course Direction KTS MPH feet Rate Location/Type
04:01PM 41.5120 -70.6021 North  Level FlightAware Approximate
04:02PM 41.5357 -70.5998 North  Level FlightAware Approximate
04:03PM 41.5498 -70.6000 North  Level FlightAware Approximate
04:04PM 41.5735 -70.6000 North  Level FlightAware Approximate
04:04PM 41.7667 -70.6000 14° North 201 231 3,900  Level KA90
04:05PM 41.5973 -70.5985 North  Level FlightAware Approximate
04:05PM 41.8167 -70.6000 360° North 201 231 3,900  Level KA90
04:06PM 41.6210 -70.5961 North  Level FlightAware Approximate
04:06PM 41.8833 -70.5833 11° North 208 239 3,900  Level KA90
04:07PM 41.6447 -70.5936 North  Level FlightAware Approximate
04:07PM 41.9333 -70.5833 360° North 199 229 3,900  Level KA90
04:08PM 41.6684 -70.5911 North  Level FlightAware Approximate
04:08PM 41.9667 -70.6333 312° West 183 211 3,900  Level KA90
04:09PM 42.0167 -70.6333 360° North 193 222 3,900  Level KA90
04:10PM 42.0833 -70.6500 349° North 195 224 3,900  Level KA90
04:11PM 42.1333 -70.6500 360° North 192 221 3,900  Level KA90
04:12PM 42.1833 -70.6500 360° North 192 221 3,900 -300 Level KA90
04:13PM 42.2333 -70.6667 346° North 209 241 3,300 -540 Descending KA90
04:14PM 42.3000 -70.6667 360° North 205 236 2,900 -240 Descending KA90
04:15PM 42.3500 -70.6667 360° North 199 229 2,900  Level KA90
04:16PM 42.4000 -70.6333 26° Northeast 199 229 2,900  Level KA90
04:17PM 42.4167 -70.6833 294° West 143 165 2,900  Level KA90
04:18PM 42.4000 -70.7333 246° West 151 174 2,900  Level KA90
04:19PM 42.4000 -70.8000 270° West 144 166 2,900 -480 Level KA90
04:20PM 42.3833 -70.8500 246° West 160 184 1,900 -900 Descending KA90
04:21PM 42.3667 -70.9167 251° West 170 196 1,200 -840 Descending KA90
04:22PM 42.3667 -70.9667 270° West 156 180 300 -780 Descending KA90
04:24PM 42.3500 -71.0000 324° Northwest  Level FlightAware Approximate